sensor_id;sensor_type;location;lat;lon;timestamp;temperature;humidity
76996;DHT22;65929;49.062;10.338;2023-06-10T00:00:16;15.20;64.00
76996;DHT22;65929;49.062;10.338;2023-06-10T00:01:17;15.10;64.20
76996;DHT22;65929;49.062;10.338;2023-06-10T00:02:18;15.00;64.20
76996;DHT22;65929;49.062;10.338;2023-06-10T00:03:19;15.00;64.40
76996;DHT22;65929;49.062;10.338;2023-06-10T00:04:20;15.00;64.70
76996;DHT22;65929;49.062;10.338;2023-06-10T00:05:21;14.90;65.00
76996;DHT22;65929;49.062;10.338;2023-06-10T00:06:22;14.90;65.20
76996;DHT22;65929;49.062;10.338;2023-06-10T00:07:24;14.80;65.40
76996;DHT22;65929;49.062;10.338;2023-06-10T00:08:25;14.80;65.50
76996;DHT22;65929;49.062;10.338;2023-06-10T00:09:26;14.80;66.10
76996;DHT22;65929;49.062;10.338;2023-06-10T00:10:29;14.80;65.90
76996;DHT22;65929;49.062;10.338;2023-06-10T00:11:32;14.70;66.30
76996;DHT22;65929;49.062;10.338;2023-06-10T00:12:33;14.70;66.10
76996;DHT22;65929;49.062;10.338;2023-06-10T00:13:37;14.70;66.20
76996;DHT22;65929;49.062;10.338;2023-06-10T00:14:39;14.70;66.10
76996;DHT22;65929;49.062;10.338;2023-06-10T00:15:43;14.60;66.50
76996;DHT22;65929;49.062;10.338;2023-06-10T00:16:44;14.60;66.50
76996;DHT22;65929;49.062;10.338;2023-06-10T00:17:45;14.60;66.60
76996;DHT22;65929;49.062;10.338;2023-06-10T00:18:46;14.60;66.90
76996;DHT22;65929;49.062;10.338;2023-06-10T00:19:47;14.60;67.00
76996;DHT22;65929;49.062;10.338;2023-06-10T00:20:51;14.60;67.10
76996;DHT22;65929;49.062;10.338;2023-06-10T00:21:53;14.60;67.40
76996;DHT22;65929;49.062;10.338;2023-06-10T00:22:54;14.60;67.60
76996;DHT22;65929;49.062;10.338;2023-06-10T00:23:55;14.50;67.30
76996;DHT22;65929;49.062;10.338;2023-06-10T00:24:57;14.50;67.50
76996;DHT22;65929;49.062;10.338;2023-06-10T00:25:58;14.50;67.40
76996;DHT22;65929;49.062;10.338;2023-06-10T00:27:01;14.50;67.80
76996;DHT22;65929;49.062;10.338;2023-06-10T00:28:02;14.50;67.80
76996;DHT22;65929;49.062;10.338;2023-06-10T00:29:03;14.40;67.60
76996;DHT22;65929;49.062;10.338;2023-06-10T00:30:05;14.40;67.90
76996;DHT22;65929;49.062;10.338;2023-06-10T00:31:07;14.40;67.90
76996;DHT22;65929;49.062;10.338;2023-06-10T00:32:08;14.30;68.60
76996;DHT22;65929;49.062;10.338;2023-06-10T00:33:09;14.30;68.70
76996;DHT22;65929;49.062;10.338;2023-06-10T00:34:11;14.40;69.20
76996;DHT22;65929;49.062;10.338;2023-06-10T00:35:12;14.40;69.00
76996;DHT22;65929;49.062;10.338;2023-06-10T00:36:13;14.40;69.00
76996;DHT22;65929;49.062;10.338;2023-06-10T00:37:14;14.40;69.10
76996;DHT22;65929;49.062;10.338;2023-06-10T00:38:15;14.40;69.30
76996;DHT22;65929;49.062;10.338;2023-06-10T00:39:16;14.40;69.50
76996;DHT22;65929;49.062;10.338;2023-06-10T00:40:17;14.40;69.10
76996;DHT22;65929;49.062;10.338;2023-06-10T00:41:18;14.40;69.90
76996;DHT22;65929;49.062;10.338;2023-06-10T00:42:21;14.40;70.00
76996;DHT22;65929;49.062;10.338;2023-06-10T00:43:24;14.40;69.50
76996;DHT22;65929;49.062;10.338;2023-06-10T00:44:25;14.40;70.00
76996;DHT22;65929;49.062;10.338;2023-06-10T00:45:26;14.40;70.00
76996;DHT22;65929;49.062;10.338;2023-06-10T00:46:27;14.40;70.30
76996;DHT22;65929;49.062;10.338;2023-06-10T00:47:28;14.40;70.40
76996;DHT22;65929;49.062;10.338;2023-06-10T00:48:30;14.40;70.60
76996;DHT22;65929;49.062;10.338;2023-06-10T00:49:32;14.40;70.50
76996;DHT22;65929;49.062;10.338;2023-06-10T00:50:33;14.40;70.50
76996;DHT22;65929;49.062;10.338;2023-06-10T00:51:35;14.40;70.50
76996;DHT22;65929;49.062;10.338;2023-06-10T00:52:37;14.40;70.50
76996;DHT22;65929;49.062;10.338;2023-06-10T00:53:40;14.30;70.50
76996;DHT22;65929;49.062;10.338;2023-06-10T00:54:42;14.30;70.70
76996;DHT22;65929;49.062;10.338;2023-06-10T00:55:43;14.30;70.70
76996;DHT22;65929;49.062;10.338;2023-06-10T00:56:45;14.30;70.70
76996;DHT22;65929;49.062;10.338;2023-06-10T00:57:50;14.30;70.90
76996;DHT22;65929;49.062;10.338;2023-06-10T00:58:52;14.30;71.00
76996;DHT22;65929;49.062;10.338;2023-06-10T00:59:53;14.40;71.00
76996;DHT22;65929;49.062;10.338;2023-06-10T01:00:54;14.40;70.90
76996;DHT22;65929;49.062;10.338;2023-06-10T01:01:56;14.40;70.70
76996;DHT22;65929;49.062;10.338;2023-06-10T01:02:57;14.40;70.50
76996;DHT22;65929;49.062;10.338;2023-06-10T01:03:59;14.50;70.60
76996;DHT22;65929;49.062;10.338;2023-06-10T01:05:00;14.50;70.70
76996;DHT22;65929;49.062;10.338;2023-06-10T01:06:08;14.50;70.60
76996;DHT22;65929;49.062;10.338;2023-06-10T01:07:17;14.50;70.60
76996;DHT22;65929;49.062;10.338;2023-06-10T01:08:28;14.50;70.80
76996;DHT22;65929;49.062;10.338;2023-06-10T01:09:40;14.40;70.70
76996;DHT22;65929;49.062;10.338;2023-06-10T01:10:47;14.40;70.70
76996;DHT22;65929;49.062;10.338;2023-06-10T01:11:54;14.40;71.10
76996;DHT22;65929;49.062;10.338;2023-06-10T01:13:01;14.40;71.00
76996;DHT22;65929;49.062;10.338;2023-06-10T01:14:07;14.40;70.90
76996;DHT22;65929;49.062;10.338;2023-06-10T01:15:10;14.40;71.00
76996;DHT22;65929;49.062;10.338;2023-06-10T01:16:11;14.40;71.20
76996;DHT22;65929;49.062;10.338;2023-06-10T01:17:12;14.40;71.20
76996;DHT22;65929;49.062;10.338;2023-06-10T01:18:17;14.30;71.40
76996;DHT22;65929;49.062;10.338;2023-06-10T01:19:18;14.30;71.20
76996;DHT22;65929;49.062;10.338;2023-06-10T01:20:19;14.30;71.30
76996;DHT22;65929;49.062;10.338;2023-06-10T01:21:22;14.30;71.50
76996;DHT22;65929;49.062;10.338;2023-06-10T01:22:27;14.30;71.50
76996;DHT22;65929;49.062;10.338;2023-06-10T01:23:37;14.30;71.70
76996;DHT22;65929;49.062;10.338;2023-06-10T01:24:38;14.30;71.50
76996;DHT22;65929;49.062;10.338;2023-06-10T01:25:43;14.30;71.90
76996;DHT22;65929;49.062;10.338;2023-06-10T01:26:48;14.30;72.10
76996;DHT22;65929;49.062;10.338;2023-06-10T01:27:50;14.30;71.90
76996;DHT22;65929;49.062;10.338;2023-06-10T01:28:54;14.30;72.20
76996;DHT22;65929;49.062;10.338;2023-06-10T01:30:02;14.30;72.00
76996;DHT22;65929;49.062;10.338;2023-06-10T01:31:11;14.30;72.20
76996;DHT22;65929;49.062;10.338;2023-06-10T01:32:17;14.30;72.50
76996;DHT22;65929;49.062;10.338;2023-06-10T01:33:23;14.30;72.60
76996;DHT22;65929;49.062;10.338;2023-06-10T01:34:26;14.30;72.70
76996;DHT22;65929;49.062;10.338;2023-06-10T01:35:29;14.30;73.20
76996;DHT22;65929;49.062;10.338;2023-06-10T01:36:33;14.30;73.20
76996;DHT22;65929;49.062;10.338;2023-06-10T01:37:36;14.20;73.20
76996;DHT22;65929;49.062;10.338;2023-06-10T01:38:42;14.20;73.30
76996;DHT22;65929;49.062;10.338;2023-06-10T01:39:45;14.20;73.40
76996;DHT22;65929;49.062;10.338;2023-06-10T01:40:48;14.20;73.60
76996;DHT22;65929;49.062;10.338;2023-06-10T01:41:51;14.20;73.50
76996;DHT22;65929;49.062;10.338;2023-06-10T01:42:52;14.20;73.70
76996;DHT22;65929;49.062;10.338;2023-06-10T01:43:54;14.20;73.70
76996;DHT22;65929;49.062;10.338;2023-06-10T01:44:55;14.20;73.80
76996;DHT22;65929;49.062;10.338;2023-06-10T01:45:57;14.20;74.20
76996;DHT22;65929;49.062;10.338;2023-06-10T01:46:58;14.10;74.30
76996;DHT22;65929;49.062;10.338;2023-06-10T01:47:59;14.10;74.20
76996;DHT22;65929;49.062;10.338;2023-06-10T01:49:00;14.10;74.30
76996;DHT22;65929;49.062;10.338;2023-06-10T01:50:01;14.10;74.20
76996;DHT22;65929;49.062;10.338;2023-06-10T01:51:02;14.10;74.20
76996;DHT22;65929;49.062;10.338;2023-06-10T01:52:05;14.10;74.40
76996;DHT22;65929;49.062;10.338;2023-06-10T01:53:06;14.10;74.30
76996;DHT22;65929;49.062;10.338;2023-06-10T01:54:07;14.10;74.50
76996;DHT22;65929;49.062;10.338;2023-06-10T01:55:08;14.10;74.10
76996;DHT22;65929;49.062;10.338;2023-06-10T01:56:09;14.10;74.20
76996;DHT22;65929;49.062;10.338;2023-06-10T01:57:10;14.10;74.20
76996;DHT22;65929;49.062;10.338;2023-06-10T01:58:11;14.00;74.30
76996;DHT22;65929;49.062;10.338;2023-06-10T01:59:12;14.00;74.40
76996;DHT22;65929;49.062;10.338;2023-06-10T02:00:14;14.10;74.30
76996;DHT22;65929;49.062;10.338;2023-06-10T02:01:16;14.00;74.30
76996;DHT22;65929;49.062;10.338;2023-06-10T02:02:17;14.00;74.30
76996;DHT22;65929;49.062;10.338;2023-06-10T02:03:18;14.00;74.30
76996;DHT22;65929;49.062;10.338;2023-06-10T02:04:19;14.00;74.40
76996;DHT22;65929;49.062;10.338;2023-06-10T02:05:20;14.00;74.40
76996;DHT22;65929;49.062;10.338;2023-06-10T02:06:21;14.00;74.60
76996;DHT22;65929;49.062;10.338;2023-06-10T02:07:23;14.00;74.20
76996;DHT22;65929;49.062;10.338;2023-06-10T02:08:24;14.00;74.50
76996;DHT22;65929;49.062;10.338;2023-06-10T02:09:25;14.00;74.50
76996;DHT22;65929;49.062;10.338;2023-06-10T02:10:26;13.90;74.50
76996;DHT22;65929;49.062;10.338;2023-06-10T02:11:27;13.90;75.10
76996;DHT22;65929;49.062;10.338;2023-06-10T02:12:28;13.90;75.00
76996;DHT22;65929;49.062;10.338;2023-06-10T02:13:29;13.90;75.40
76996;DHT22;65929;49.062;10.338;2023-06-10T02:14:32;13.90;75.20
76996;DHT22;65929;49.062;10.338;2023-06-10T02:15:33;13.90;75.00
76996;DHT22;65929;49.062;10.338;2023-06-10T02:16:34;13.90;75.00
76996;DHT22;65929;49.062;10.338;2023-06-10T02:17:35;13.90;75.00
76996;DHT22;65929;49.062;10.338;2023-06-10T02:18:36;13.90;75.10
76996;DHT22;65929;49.062;10.338;2023-06-10T02:19:37;13.90;74.80
76996;DHT22;65929;49.062;10.338;2023-06-10T02:20:43;13.90;75.10
76996;DHT22;65929;49.062;10.338;2023-06-10T02:21:44;13.80;75.50
76996;DHT22;65929;49.062;10.338;2023-06-10T02:22:46;13.70;75.40
76996;DHT22;65929;49.062;10.338;2023-06-10T02:23:47;13.70;75.50
76996;DHT22;65929;49.062;10.338;2023-06-10T02:24:48;13.70;75.40
76996;DHT22;65929;49.062;10.338;2023-06-10T02:25:49;13.70;75.50
76996;DHT22;65929;49.062;10.338;2023-06-10T02:26:50;13.60;75.90
76996;DHT22;65929;49.062;10.338;2023-06-10T02:27:52;13.60;75.90
76996;DHT22;65929;49.062;10.338;2023-06-10T02:28:53;13.60;75.60
76996;DHT22;65929;49.062;10.338;2023-06-10T02:29:54;13.60;75.80
76996;DHT22;65929;49.062;10.338;2023-06-10T02:30:55;13.60;75.70
76996;DHT22;65929;49.062;10.338;2023-06-10T02:31:57;13.50;75.90
76996;DHT22;65929;49.062;10.338;2023-06-10T02:32:58;13.50;75.90
76996;DHT22;65929;49.062;10.338;2023-06-10T02:33:59;13.50;75.90
76996;DHT22;65929;49.062;10.338;2023-06-10T02:35:00;13.50;75.80
76996;DHT22;65929;49.062;10.338;2023-06-10T02:36:02;13.50;76.20
76996;DHT22;65929;49.062;10.338;2023-06-10T02:37:03;13.50;76.40
76996;DHT22;65929;49.062;10.338;2023-06-10T02:38:06;13.50;76.60
76996;DHT22;65929;49.062;10.338;2023-06-10T02:39:07;13.50;76.30
76996;DHT22;65929;49.062;10.338;2023-06-10T02:40:09;13.40;76.30
76996;DHT22;65929;49.062;10.338;2023-06-10T02:41:11;13.40;76.30
76996;DHT22;65929;49.062;10.338;2023-06-10T02:42:12;13.30;76.60
76996;DHT22;65929;49.062;10.338;2023-06-10T02:43:13;13.30;76.60
76996;DHT22;65929;49.062;10.338;2023-06-10T02:44:14;13.30;76.50
76996;DHT22;65929;49.062;10.338;2023-06-10T02:45:15;13.30;76.60
76996;DHT22;65929;49.062;10.338;2023-06-10T02:46:16;13.30;76.90
76996;DHT22;65929;49.062;10.338;2023-06-10T02:47:17;13.30;77.10
76996;DHT22;65929;49.062;10.338;2023-06-10T02:48:17;13.30;77.20
76996;DHT22;65929;49.062;10.338;2023-06-10T02:49:18;13.30;77.20
76996;DHT22;65929;49.062;10.338;2023-06-10T02:50:20;13.40;77.00
76996;DHT22;65929;49.062;10.338;2023-06-10T02:51:21;13.40;76.60
76996;DHT22;65929;49.062;10.338;2023-06-10T02:52:22;13.40;76.80
76996;DHT22;65929;49.062;10.338;2023-06-10T02:53:24;13.40;76.90
76996;DHT22;65929;49.062;10.338;2023-06-10T02:54:26;13.40;76.80
76996;DHT22;65929;49.062;10.338;2023-06-10T02:55:27;13.30;76.80
76996;DHT22;65929;49.062;10.338;2023-06-10T02:56:28;13.30;76.80
76996;DHT22;65929;49.062;10.338;2023-06-10T02:57:29;13.30;77.10
76996;DHT22;65929;49.062;10.338;2023-06-10T02:58:30;13.20;77.20
76996;DHT22;65929;49.062;10.338;2023-06-10T02:59:31;13.10;77.50
76996;DHT22;65929;49.062;10.338;2023-06-10T03:00:32;13.10;78.20
76996;DHT22;65929;49.062;10.338;2023-06-10T03:01:33;13.00;78.70
76996;DHT22;65929;49.062;10.338;2023-06-10T03:02:37;13.00;79.50
76996;DHT22;65929;49.062;10.338;2023-06-10T03:03:39;13.00;79.80
76996;DHT22;65929;49.062;10.338;2023-06-10T03:04:42;13.00;80.10
76996;DHT22;65929;49.062;10.338;2023-06-10T03:05:44;12.90;79.60
76996;DHT22;65929;49.062;10.338;2023-06-10T03:06:45;12.90;79.50
76996;DHT22;65929;49.062;10.338;2023-06-10T03:07:46;12.90;79.40
76996;DHT22;65929;49.062;10.338;2023-06-10T03:08:49;12.80;79.30
76996;DHT22;65929;49.062;10.338;2023-06-10T03:09:50;12.80;79.80
76996;DHT22;65929;49.062;10.338;2023-06-10T03:10:51;12.80;79.90
76996;DHT22;65929;49.062;10.338;2023-06-10T03:11:52;12.80;79.80
76996;DHT22;65929;49.062;10.338;2023-06-10T03:12:53;12.90;80.10
76996;DHT22;65929;49.062;10.338;2023-06-10T03:13:54;12.90;80.40
76996;DHT22;65929;49.062;10.338;2023-06-10T03:14:55;12.90;80.50
76996;DHT22;65929;49.062;10.338;2023-06-10T03:15:56;12.90;80.80
76996;DHT22;65929;49.062;10.338;2023-06-10T03:16:57;13.00;80.70
76996;DHT22;65929;49.062;10.338;2023-06-10T03:17:58;13.00;80.50
76996;DHT22;65929;49.062;10.338;2023-06-10T03:19:00;12.90;80.10
76996;DHT22;65929;49.062;10.338;2023-06-10T03:20:02;12.90;80.00
76996;DHT22;65929;49.062;10.338;2023-06-10T03:21:04;12.90;80.10
76996;DHT22;65929;49.062;10.338;2023-06-10T03:22:09;12.90;80.00
76996;DHT22;65929;49.062;10.338;2023-06-10T03:23:10;12.80;80.00
76996;DHT22;65929;49.062;10.338;2023-06-10T03:24:13;12.80;80.10
76996;DHT22;65929;49.062;10.338;2023-06-10T03:25:14;12.80;80.10
76996;DHT22;65929;49.062;10.338;2023-06-10T03:26:15;12.80;80.10
76996;DHT22;65929;49.062;10.338;2023-06-10T03:27:17;12.80;80.30
76996;DHT22;65929;49.062;10.338;2023-06-10T03:28:18;12.80;80.20
76996;DHT22;65929;49.062;10.338;2023-06-10T03:29:19;12.70;80.80
76996;DHT22;65929;49.062;10.338;2023-06-10T03:30:20;12.70;81.00
76996;DHT22;65929;49.062;10.338;2023-06-10T03:31:21;12.70;81.00
76996;DHT22;65929;49.062;10.338;2023-06-10T03:32:22;12.80;81.30
76996;DHT22;65929;49.062;10.338;2023-06-10T03:33:23;12.80;81.50
76996;DHT22;65929;49.062;10.338;2023-06-10T03:34:24;12.80;81.50
76996;DHT22;65929;49.062;10.338;2023-06-10T03:35:25;12.90;81.70
76996;DHT22;65929;49.062;10.338;2023-06-10T03:36:26;12.90;82.10
76996;DHT22;65929;49.062;10.338;2023-06-10T03:37:29;12.90;82.10
76996;DHT22;65929;49.062;10.338;2023-06-10T03:38:30;12.90;81.80
76996;DHT22;65929;49.062;10.338;2023-06-10T03:39:33;12.90;81.90
76996;DHT22;65929;49.062;10.338;2023-06-10T03:40:34;12.90;81.80
76996;DHT22;65929;49.062;10.338;2023-06-10T03:41:35;12.80;82.10
76996;DHT22;65929;49.062;10.338;2023-06-10T03:42:36;12.90;82.40
76996;DHT22;65929;49.062;10.338;2023-06-10T03:43:37;12.90;82.20
76996;DHT22;65929;49.062;10.338;2023-06-10T03:44:41;12.90;81.80
76996;DHT22;65929;49.062;10.338;2023-06-10T03:45:42;12.90;81.40
76996;DHT22;65929;49.062;10.338;2023-06-10T03:46:43;12.90;80.80
76996;DHT22;65929;49.062;10.338;2023-06-10T03:47:44;12.90;80.90
76996;DHT22;65929;49.062;10.338;2023-06-10T03:48:45;12.80;81.00
76996;DHT22;65929;49.062;10.338;2023-06-10T03:49:46;12.80;80.70
76996;DHT22;65929;49.062;10.338;2023-06-10T03:50:47;12.80;80.50
76996;DHT22;65929;49.062;10.338;2023-06-10T03:51:51;12.90;80.50
76996;DHT22;65929;49.062;10.338;2023-06-10T03:52:52;12.90;80.50
76996;DHT22;65929;49.062;10.338;2023-06-10T03:53:53;12.90;80.60
76996;DHT22;65929;49.062;10.338;2023-06-10T03:54:55;12.90;80.60
76996;DHT22;65929;49.062;10.338;2023-06-10T03:55:56;12.90;80.50
76996;DHT22;65929;49.062;10.338;2023-06-10T03:56:58;12.90;80.50
76996;DHT22;65929;49.062;10.338;2023-06-10T03:57:59;13.00;80.40
76996;DHT22;65929;49.062;10.338;2023-06-10T03:59:00;13.00;80.70
76996;DHT22;65929;49.062;10.338;2023-06-10T04:00:01;13.00;80.50
76996;DHT22;65929;49.062;10.338;2023-06-10T04:01:07;13.00;80.50
76996;DHT22;65929;49.062;10.338;2023-06-10T04:02:08;13.10;80.50
76996;DHT22;65929;49.062;10.338;2023-06-10T04:03:09;13.10;80.30
76996;DHT22;65929;49.062;10.338;2023-06-10T04:04:15;13.10;80.30
76996;DHT22;65929;49.062;10.338;2023-06-10T04:05:19;13.00;80.60
76996;DHT22;65929;49.062;10.338;2023-06-10T04:06:23;13.00;80.70
76996;DHT22;65929;49.062;10.338;2023-06-10T04:07:26;13.00;80.80
76996;DHT22;65929;49.062;10.338;2023-06-10T04:08:27;13.00;80.70
76996;DHT22;65929;49.062;10.338;2023-06-10T04:09:28;13.00;80.90
76996;DHT22;65929;49.062;10.338;2023-06-10T04:10:31;13.00;80.70
76996;DHT22;65929;49.062;10.338;2023-06-10T04:11:32;13.00;81.10
76996;DHT22;65929;49.062;10.338;2023-06-10T04:12:33;13.10;81.20
76996;DHT22;65929;49.062;10.338;2023-06-10T04:13:34;13.10;81.00
76996;DHT22;65929;49.062;10.338;2023-06-10T04:14:35;13.10;81.30
76996;DHT22;65929;49.062;10.338;2023-06-10T04:15:37;13.10;81.60
76996;DHT22;65929;49.062;10.338;2023-06-10T04:16:38;13.20;81.90
76996;DHT22;65929;49.062;10.338;2023-06-10T04:17:39;13.30;81.80
76996;DHT22;65929;49.062;10.338;2023-06-10T04:18:40;13.30;81.70
76996;DHT22;65929;49.062;10.338;2023-06-10T04:19:42;13.30;81.40
76996;DHT22;65929;49.062;10.338;2023-06-10T04:20:43;13.30;81.20
76996;DHT22;65929;49.062;10.338;2023-06-10T04:21:45;13.30;80.80
76996;DHT22;65929;49.062;10.338;2023-06-10T04:22:46;13.30;80.80
76996;DHT22;65929;49.062;10.338;2023-06-10T04:23:47;13.30;81.00
76996;DHT22;65929;49.062;10.338;2023-06-10T04:24:49;13.30;81.60
76996;DHT22;65929;49.062;10.338;2023-06-10T04:25:51;13.30;81.60
76996;DHT22;65929;49.062;10.338;2023-06-10T04:26:52;13.30;81.70
76996;DHT22;65929;49.062;10.338;2023-06-10T04:27:53;13.40;81.50
76996;DHT22;65929;49.062;10.338;2023-06-10T04:28:54;13.40;81.50
76996;DHT22;65929;49.062;10.338;2023-06-10T04:29:55;13.50;81.20
76996;DHT22;65929;49.062;10.338;2023-06-10T04:30:56;13.50;81.10
76996;DHT22;65929;49.062;10.338;2023-06-10T04:31:57;13.50;80.90
76996;DHT22;65929;49.062;10.338;2023-06-10T04:32:58;13.50;80.80
76996;DHT22;65929;49.062;10.338;2023-06-10T04:33:59;13.50;80.50
76996;DHT22;65929;49.062;10.338;2023-06-10T04:35:01;13.50;80.70
76996;DHT22;65929;49.062;10.338;2023-06-10T04:36:02;13.60;80.60
76996;DHT22;65929;49.062;10.338;2023-06-10T04:37:04;13.60;80.50
76996;DHT22;65929;49.062;10.338;2023-06-10T04:38:05;13.60;80.20
76996;DHT22;65929;49.062;10.338;2023-06-10T04:39:06;13.60;80.20
76996;DHT22;65929;49.062;10.338;2023-06-10T04:40:08;13.70;80.10
76996;DHT22;65929;49.062;10.338;2023-06-10T04:41:10;13.70;79.90
76996;DHT22;65929;49.062;10.338;2023-06-10T04:42:11;13.70;80.20
76996;DHT22;65929;49.062;10.338;2023-06-10T04:43:12;13.70;80.30
76996;DHT22;65929;49.062;10.338;2023-06-10T04:44:14;13.80;80.00
76996;DHT22;65929;49.062;10.338;2023-06-10T04:45:15;13.90;79.60
76996;DHT22;65929;49.062;10.338;2023-06-10T04:46:16;13.90;79.40
76996;DHT22;65929;49.062;10.338;2023-06-10T04:47:17;13.90;79.00
76996;DHT22;65929;49.062;10.338;2023-06-10T04:48:17;14.00;78.80
76996;DHT22;65929;49.062;10.338;2023-06-10T04:49:18;14.00;78.70
76996;DHT22;65929;49.062;10.338;2023-06-10T04:50:19;14.10;78.70
76996;DHT22;65929;49.062;10.338;2023-06-10T04:51:20;14.10;79.00
76996;DHT22;65929;49.062;10.338;2023-06-10T04:52:22;14.10;78.90
76996;DHT22;65929;49.062;10.338;2023-06-10T04:53:22;14.20;78.70
76996;DHT22;65929;49.062;10.338;2023-06-10T04:54:23;14.20;78.40
76996;DHT22;65929;49.062;10.338;2023-06-10T04:55:24;14.20;78.60
76996;DHT22;65929;49.062;10.338;2023-06-10T04:56:27;14.30;78.00
76996;DHT22;65929;49.062;10.338;2023-06-10T04:57:29;14.30;77.60
76996;DHT22;65929;49.062;10.338;2023-06-10T04:58:30;14.40;77.50
76996;DHT22;65929;49.062;10.338;2023-06-10T04:59:31;14.40;77.80
76996;DHT22;65929;49.062;10.338;2023-06-10T05:01:35;14.40;77.70
76996;DHT22;65929;49.062;10.338;2023-06-10T05:02:36;14.40;77.90
76996;DHT22;65929;49.062;10.338;2023-06-10T05:03:37;14.50;77.80
76996;DHT22;65929;49.062;10.338;2023-06-10T05:04:38;14.50;77.50
76996;DHT22;65929;49.062;10.338;2023-06-10T05:05:39;14.60;77.50
76996;DHT22;65929;49.062;10.338;2023-06-10T05:06:40;14.60;77.00
76996;DHT22;65929;49.062;10.338;2023-06-10T05:07:41;14.70;76.70
76996;DHT22;65929;49.062;10.338;2023-06-10T05:08:42;14.70;76.40
76996;DHT22;65929;49.062;10.338;2023-06-10T05:09:43;14.70;76.20
76996;DHT22;65929;49.062;10.338;2023-06-10T05:10:44;14.80;76.10
76996;DHT22;65929;49.062;10.338;2023-06-10T05:11:47;14.80;76.00
76996;DHT22;65929;49.062;10.338;2023-06-10T05:12:47;14.90;76.00
76996;DHT22;65929;49.062;10.338;2023-06-10T05:13:48;14.90;76.10
76996;DHT22;65929;49.062;10.338;2023-06-10T05:14:49;14.90;76.00
76996;DHT22;65929;49.062;10.338;2023-06-10T05:15:50;15.00;75.90
76996;DHT22;65929;49.062;10.338;2023-06-10T05:16:51;15.00;75.80
76996;DHT22;65929;49.062;10.338;2023-06-10T05:17:55;15.00;75.70
76996;DHT22;65929;49.062;10.338;2023-06-10T05:18:56;15.00;75.70
76996;DHT22;65929;49.062;10.338;2023-06-10T05:19:57;15.10;76.20
76996;DHT22;65929;49.062;10.338;2023-06-10T05:20:58;15.10;76.20
76996;DHT22;65929;49.062;10.338;2023-06-10T05:21:59;15.20;75.70
76996;DHT22;65929;49.062;10.338;2023-06-10T05:23:00;15.20;75.10
76996;DHT22;65929;49.062;10.338;2023-06-10T05:24:02;15.30;75.10
76996;DHT22;65929;49.062;10.338;2023-06-10T05:25:03;15.30;75.10
76996;DHT22;65929;49.062;10.338;2023-06-10T05:26:04;15.30;75.10
76996;DHT22;65929;49.062;10.338;2023-06-10T05:27:07;15.40;75.30
76996;DHT22;65929;49.062;10.338;2023-06-10T05:28:09;15.40;75.20
76996;DHT22;65929;49.062;10.338;2023-06-10T05:29:10;15.50;75.20
76996;DHT22;65929;49.062;10.338;2023-06-10T05:30:12;15.50;75.10
76996;DHT22;65929;49.062;10.338;2023-06-10T05:31:13;15.50;75.00
76996;DHT22;65929;49.062;10.338;2023-06-10T05:32:14;15.60;74.70
76996;DHT22;65929;49.062;10.338;2023-06-10T05:33:15;15.60;74.70
76996;DHT22;65929;49.062;10.338;2023-06-10T05:34:16;15.60;74.50
76996;DHT22;65929;49.062;10.338;2023-06-10T05:35:17;15.80;74.70
76996;DHT22;65929;49.062;10.338;2023-06-10T05:36:18;15.80;73.80
76996;DHT22;65929;49.062;10.338;2023-06-10T05:37:19;16.00;73.40
76996;DHT22;65929;49.062;10.338;2023-06-10T05:38:20;16.00;73.40
76996;DHT22;65929;49.062;10.338;2023-06-10T05:39:21;16.00;73.40
76996;DHT22;65929;49.062;10.338;2023-06-10T05:40:22;16.00;73.00
76996;DHT22;65929;49.062;10.338;2023-06-10T05:41:24;16.10;73.00
76996;DHT22;65929;49.062;10.338;2023-06-10T05:42:27;16.20;72.80
76996;DHT22;65929;49.062;10.338;2023-06-10T05:43:28;16.20;72.80
76996;DHT22;65929;49.062;10.338;2023-06-10T05:44:32;16.30;72.60
76996;DHT22;65929;49.062;10.338;2023-06-10T05:45:33;16.40;72.30
76996;DHT22;65929;49.062;10.338;2023-06-10T05:46:34;16.40;72.10
76996;DHT22;65929;49.062;10.338;2023-06-10T05:47:35;16.40;72.20
76996;DHT22;65929;49.062;10.338;2023-06-10T05:48:36;16.40;71.90
76996;DHT22;65929;49.062;10.338;2023-06-10T05:49:37;16.50;71.60
76996;DHT22;65929;49.062;10.338;2023-06-10T05:50:39;16.60;71.00
76996;DHT22;65929;49.062;10.338;2023-06-10T05:51:43;16.60;70.70
76996;DHT22;65929;49.062;10.338;2023-06-10T05:52:44;16.70;70.70
76996;DHT22;65929;49.062;10.338;2023-06-10T05:53:45;16.70;70.70
76996;DHT22;65929;49.062;10.338;2023-06-10T05:54:47;16.70;70.70
76996;DHT22;65929;49.062;10.338;2023-06-10T05:55:48;16.80;70.80
76996;DHT22;65929;49.062;10.338;2023-06-10T05:56:49;16.80;70.70
76996;DHT22;65929;49.062;10.338;2023-06-10T05:57:59;16.80;70.70
76996;DHT22;65929;49.062;10.338;2023-06-10T05:59:01;16.90;70.50
76996;DHT22;65929;49.062;10.338;2023-06-10T06:00:03;16.90;70.30
76996;DHT22;65929;49.062;10.338;2023-06-10T06:01:04;17.00;70.50
76996;DHT22;65929;49.062;10.338;2023-06-10T06:02:08;17.00;69.80
76996;DHT22;65929;49.062;10.338;2023-06-10T06:03:09;17.10;70.10
76996;DHT22;65929;49.062;10.338;2023-06-10T06:04:13;17.20;69.60
76996;DHT22;65929;49.062;10.338;2023-06-10T06:05:14;17.20;69.20
76996;DHT22;65929;49.062;10.338;2023-06-10T06:06:15;17.30;68.80
76996;DHT22;65929;49.062;10.338;2023-06-10T06:07:16;17.30;68.50
76996;DHT22;65929;49.062;10.338;2023-06-10T06:08:17;17.40;68.60
76996;DHT22;65929;49.062;10.338;2023-06-10T06:09:19;17.40;69.00
76996;DHT22;65929;49.062;10.338;2023-06-10T06:10:20;17.50;68.30
76996;DHT22;65929;49.062;10.338;2023-06-10T06:11:21;17.50;68.20
76996;DHT22;65929;49.062;10.338;2023-06-10T06:12:22;17.50;68.20
76996;DHT22;65929;49.062;10.338;2023-06-10T06:13:24;17.50;68.00
76996;DHT22;65929;49.062;10.338;2023-06-10T06:14:25;17.60;68.00
76996;DHT22;65929;49.062;10.338;2023-06-10T06:15:27;17.60;67.90
76996;DHT22;65929;49.062;10.338;2023-06-10T06:16:28;17.60;67.90
76996;DHT22;65929;49.062;10.338;2023-06-10T06:17:29;17.60;67.90
76996;DHT22;65929;49.062;10.338;2023-06-10T06:18:30;17.70;68.10
76996;DHT22;65929;49.062;10.338;2023-06-10T06:19:38;17.80;67.90
76996;DHT22;65929;49.062;10.338;2023-06-10T06:20:39;17.80;67.60
76996;DHT22;65929;49.062;10.338;2023-06-10T06:21:40;17.80;67.30
76996;DHT22;65929;49.062;10.338;2023-06-10T06:22:41;17.90;66.50
76996;DHT22;65929;49.062;10.338;2023-06-10T06:23:45;18.00;66.10
76996;DHT22;65929;49.062;10.338;2023-06-10T06:24:46;18.00;66.10